createdAt,value
2023-03-03T00:04:08.265Z,45.40
2023-03-03T00:09:11.130Z,46.47
2023-03-03T00:14:23.153Z,47.20
2023-03-03T00:19:26.232Z,45.60
2023-03-03T00:24:37.818Z,44.90
2023-03-03T00:29:46.804Z,45.67
2023-03-03T00:34:50.790Z,43.95
2023-03-03T00:39:53.656Z,44.00
2023-03-03T00:45:00.227Z,45.00
2023-03-03T00:50:26.560Z,44.42
2023-03-03T00:55:29.657Z,44.83
2023-03-03T01:00:34.645Z,45.23
2023-03-03T01:05:39.610Z,45.63
2023-03-03T01:10:46.721Z,43.67
2023-03-03T01:15:57.162Z,45.33
2023-03-03T01:21:00.263Z,43.97
2023-03-03T01:26:03.350Z,53.30
2023-03-03T01:31:08.040Z,45.92
2023-03-03T01:36:11.133Z,45.67
2023-03-03T01:41:13.995Z,44.73
2023-03-03T01:46:51.486Z,45.10
2023-03-03T01:51:58.750Z,44.67
2023-03-03T01:57:06.952Z,45.08
2023-03-03T02:02:11.412Z,43.55
2023-03-03T02:07:17.128Z,45.47
2023-03-03T02:12:24.259Z,42.88
2023-03-03T02:17:28.494Z,43.83
2023-03-03T02:22:41.722Z,45.15
2023-03-03T02:27:45.987Z,43.42
2023-03-03T02:32:48.892Z,43.13
2023-03-03T02:37:52.326Z,44.20
2023-03-03T02:42:58.380Z,44.90
2023-03-03T02:48:01.250Z,43.77
2023-03-03T02:53:04.744Z,47.05
2023-03-03T02:58:09.065Z,45.43
2023-03-03T03:03:12.162Z,42.23
2023-03-03T03:08:15.793Z,42.63
2023-03-03T03:13:20.093Z,43.43
2023-03-03T03:18:24.858Z,43.53
2023-03-03T03:23:29.819Z,46.27
2023-03-03T03:28:35.417Z,42.47
2023-03-03T03:33:38.759Z,43.00
2023-03-03T03:38:42.337Z,44.50
2023-03-03T03:43:48.823Z,45.47
2023-03-03T03:48:52.477Z,42.77
2023-03-03T03:53:56.920Z,43.57
2023-03-03T03:59:01.657Z,44.53
2023-03-03T04:04:05.183Z,42.40
2023-03-03T04:09:08.428Z,44.20
2023-03-03T04:14:13.170Z,45.37
2023-03-03T04:19:16.138Z,43.77
2023-03-03T04:24:20.350Z,43.33
2023-03-03T04:29:27.638Z,43.33
2023-03-03T04:34:31.043Z,44.47
2023-03-03T04:39:35.426Z,43.47
2023-03-03T04:44:40.655Z,43.97
2023-03-03T04:49:43.933Z,45.13
2023-03-03T04:54:48.307Z,45.03
2023-03-03T04:59:52.647Z,43.93
2023-03-03T05:04:55.739Z,43.53
2023-03-03T05:09:58.682Z,44.97
2023-03-03T05:15:02.926Z,44.40
2023-03-03T05:20:08.550Z,53.22
2023-03-03T05:25:12.717Z,45.33
2023-03-03T05:30:17.184Z,43.60
2023-03-03T05:35:20.743Z,45.07
2023-03-03T05:40:23.722Z,43.83
2023-03-03T05:45:28.057Z,44.30
2023-03-03T05:50:30.995Z,44.33
2023-03-03T05:55:33.966Z,45.40
2023-03-03T06:00:38.406Z,46.03
2023-03-03T06:05:41.302Z,44.77
2023-03-03T06:10:49.748Z,44.80
2023-03-03T06:15:54.306Z,46.00
2023-03-03T06:20:57.505Z,45.80
2023-03-03T06:26:00.375Z,46.03
2023-03-03T06:31:04.845Z,45.47
2023-03-03T06:36:08.399Z,43.77
2023-03-03T06:41:11.961Z,44.27
2023-03-03T06:46:17.348Z,44.97
2023-03-03T06:51:26.826Z,45.43
2023-03-03T06:56:30.658Z,46.03
2023-03-03T07:01:37.739Z,45.97
2023-03-03T07:06:40.614Z,49.27
2023-03-03T07:11:45.652Z,47.97
2023-03-03T07:16:54.928Z,47.03
2023-03-03T07:21:58.789Z,48.17
2023-03-03T07:27:11.106Z,44.93
2023-03-03T07:32:27.143Z,47.07
2023-03-03T07:37:38.507Z,46.23
2023-03-03T07:42:44.214Z,47.30
2023-03-03T07:48:15.503Z,50.45
2023-03-03T07:53:27.186Z,47.87
2023-03-03T07:58:38.629Z,49.73
2023-03-03T08:03:45.607Z,48.03
2023-03-03T08:08:48.470Z,49.70
2023-03-03T08:13:51.323Z,50.50
2023-03-03T08:18:57.104Z,49.40
2023-03-03T08:24:00.070Z,48.63
2023-03-03T08:29:03.088Z,47.10
2023-03-03T08:34:07.402Z,46.10
2023-03-03T08:39:10.447Z,47.00
2023-03-03T08:44:13.376Z,48.13
2023-03-03T08:49:17.668Z,47.63
2023-03-03T08:54:20.593Z,47.00
2023-03-03T08:59:23.507Z,47.93
2023-03-03T09:04:27.806Z,47.97
2023-03-03T09:09:30.952Z,48.93
2023-03-03T09:14:33.922Z,47.47
2023-03-03T09:19:38.347Z,48.67
2023-03-03T09:24:43.748Z,48.70
2023-03-03T09:29:46.890Z,49.87
2023-03-03T09:34:52.104Z,47.93
2023-03-03T09:39:57.462Z,49.20
2023-03-03T09:45:19.943Z,49.60
2023-03-03T09:50:33.894Z,50.97
2023-03-03T09:55:45.511Z,49.20
2023-03-03T10:00:59.999Z,48.10
2023-03-03T10:06:11.680Z,54.43
2023-03-03T10:11:22.097Z,52.40
2023-03-03T10:16:40.575Z,50.63
2023-03-03T10:21:52.118Z,49.70
2023-03-03T10:27:18.496Z,49.85
2023-03-03T10:32:38.135Z,51.13
2023-03-03T10:37:49.797Z,51.38
2023-03-03T10:43:06.014Z,52.67
2023-03-03T10:48:34.786Z,52.78
2023-03-03T10:53:48.586Z,50.88
2023-03-03T10:59:14.415Z,53.30
2023-03-03T11:04:26.292Z,52.13
2023-03-03T11:09:58.530Z,52.17
2023-03-03T11:15:20.776Z,50.10
2023-03-03T11:20:34.915Z,52.58
2023-03-03T11:25:45.459Z,51.70
2023-03-03T11:31:03.253Z,51.13
2023-03-03T11:36:12.897Z,52.27
2023-03-03T11:41:27.345Z,51.75
2023-03-03T11:46:34.743Z,51.75
2023-03-03T11:51:48.768Z,52.17
2023-03-03T11:56:58.331Z,52.75
2023-03-03T12:02:10.187Z,50.13
2023-03-03T12:07:27.824Z,52.00
2023-03-03T12:12:37.861Z,50.22
2023-03-03T12:18:00.649Z,47.42
2023-03-03T12:23:19.615Z,46.97
2023-03-03T12:28:27.181Z,48.67
2023-03-03T12:33:40.303Z,48.78
2023-03-03T12:38:53.739Z,48.80
2023-03-03T12:44:03.728Z,50.08
2023-03-03T12:49:06.730Z,48.50
2023-03-03T12:54:27.035Z,47.13
2023-03-03T12:59:40.048Z,48.40
2023-03-03T13:04:48.072Z,48.33
2023-03-03T13:10:02.810Z,47.80
2023-03-03T13:15:16.280Z,48.08
2023-03-03T13:20:26.101Z,48.13
2023-03-03T13:25:44.376Z,47.72
2023-03-03T13:30:51.666Z,45.55
2023-03-03T13:35:59.070Z,48.20
2023-03-03T13:41:11.956Z,47.53
2023-03-03T13:46:26.783Z,44.88
2023-03-03T13:51:42.127Z,46.53
2023-03-03T13:56:57.293Z,47.20
2023-03-03T14:02:11.362Z,47.63
2023-03-03T14:07:19.184Z,46.97
2023-03-03T14:12:29.734Z,47.15
2023-03-03T14:17:43.364Z,44.92
2023-03-03T14:22:52.473Z,44.80
2023-03-03T14:28:03.960Z,46.63
2023-03-03T14:33:20.548Z,48.80
2023-03-03T14:38:26.591Z,47.22
2023-03-03T14:43:38.294Z,46.75
2023-03-03T14:48:54.359Z,46.72
2023-03-03T14:53:58.490Z,45.95
2023-03-03T14:59:19.166Z,48.08
2023-03-03T15:04:28.939Z,47.35
2023-03-03T15:09:36.719Z,48.13
2023-03-03T15:14:45.958Z,48.60
2023-03-03T15:20:04.068Z,48.08
2023-03-03T15:25:16.135Z,46.53
2023-03-03T15:30:26.035Z,49.17
2023-03-03T15:35:51.358Z,48.20
2023-03-03T15:41:01.092Z,48.00
2023-03-03T15:46:15.800Z,46.88
2023-03-03T15:51:31.445Z,47.17
2023-03-03T15:56:42.221Z,46.25
2023-03-03T16:01:51.908Z,47.90
2023-03-03T16:07:03.840Z,48.38
2023-03-03T16:12:17.772Z,48.55
2023-03-03T16:17:28.604Z,48.10
2023-03-03T16:22:55.877Z,47.08
2023-03-03T16:28:06.807Z,47.33
2023-03-03T16:33:22.172Z,49.42
2023-03-03T16:38:51.186Z,47.67
2023-03-03T16:44:05.090Z,48.08
2023-03-03T16:49:11.913Z,48.83
2023-03-03T16:54:27.820Z,47.65
2023-03-03T16:59:49.534Z,48.88
2023-03-03T17:04:59.218Z,50.80
2023-03-03T17:10:23.373Z,51.05
2023-03-03T17:15:44.277Z,50.55
2023-03-03T17:20:51.510Z,45.30
2023-03-03T17:26:02.483Z,45.63
2023-03-03T17:31:11.093Z,49.60
2023-03-03T17:36:25.862Z,48.58
2023-03-03T17:41:35.913Z,45.38
2023-03-03T17:46:43.167Z,42.90
2023-03-03T17:52:17.170Z,48.28
2023-03-03T17:57:35.712Z,47.40
2023-03-03T18:03:10.233Z,49.35
2023-03-03T18:08:28.012Z,50.20
2023-03-03T18:13:56.213Z,48.45
2023-03-03T18:19:21.883Z,46.88
2023-03-03T18:24:34.228Z,49.28
2023-03-03T18:30:01.954Z,46.88
2023-03-03T18:35:25.916Z,48.78
2023-03-03T18:40:34.645Z,50.72
2023-03-03T18:45:57.732Z,48.97
2023-03-03T18:51:00.661Z,48.03
2023-03-03T18:56:04.791Z,45.40
2023-03-03T19:01:36.698Z,46.47
2023-03-03T19:07:03.913Z,47.42
2023-03-03T19:12:10.552Z,45.25
2023-03-03T19:17:49.214Z,45.72
2023-03-03T19:23:02.001Z,45.85
2023-03-03T19:28:26.311Z,46.22
2023-03-03T19:33:43.772Z,45.58
2023-03-03T19:39:03.559Z,45.80
2023-03-03T19:44:20.357Z,45.17
2023-03-03T19:49:42.764Z,45.47
2023-03-03T19:54:58.725Z,45.40
2023-03-03T20:00:07.054Z,47.03
2023-03-03T20:05:24.406Z,49.40
2023-03-03T20:10:39.454Z,47.97
2023-03-03T20:15:52.196Z,47.10
2023-03-03T20:21:07.864Z,47.83
2023-03-03T20:26:18.854Z,46.13
2023-03-03T20:31:28.723Z,53.65
2023-03-03T20:36:40.988Z,47.00
2023-03-03T20:41:58.732Z,46.22
2023-03-03T20:47:11.095Z,47.42
2023-03-03T20:52:22.170Z,46.72
2023-03-03T20:57:34.078Z,47.60
2023-03-03T21:02:42.980Z,46.25
2023-03-03T21:07:55.825Z,45.78
2023-03-03T21:13:19.986Z,46.08
2023-03-03T21:18:24.839Z,45.08
2023-03-03T21:23:29.079Z,45.33
2023-03-03T21:28:34.604Z,45.22
2023-03-03T21:33:49.465Z,45.97
2023-03-03T21:38:55.141Z,43.58
2023-03-03T21:43:58.065Z,43.78
2023-03-03T21:49:00.977Z,45.17
2023-03-03T21:54:05.378Z,44.78
2023-03-03T21:59:09.173Z,45.35
2023-03-03T22:04:12.175Z,48.35
2023-03-03T22:09:16.430Z,46.08
2023-03-03T22:14:19.536Z,45.47
2023-03-03T22:19:22.437Z,46.08
2023-03-03T22:24:26.748Z,45.65
2023-03-03T22:29:29.652Z,45.53
2023-03-03T22:34:32.620Z,46.20
2023-03-03T22:39:37.121Z,45.80
2023-03-03T22:44:40.377Z,44.90
2023-03-03T22:49:44.441Z,44.30
2023-03-03T22:54:50.982Z,44.60
2023-03-03T22:59:53.849Z,45.63
2023-03-03T23:05:00.952Z,43.10
2023-03-03T23:10:06.999Z,43.58
2023-03-03T23:15:13.367Z,44.38
2023-03-03T23:20:18.580Z,44.75
2023-03-03T23:25:23.987Z,43.88
2023-03-03T23:30:27.073Z,44.25
2023-03-03T23:35:30.033Z,43.13
2023-03-03T23:40:41.232Z,45.22
2023-03-03T23:45:44.188Z,43.93
2023-03-03T23:50:48.320Z,44.75
2023-03-03T23:55:52.533Z,43.78
